createdAt,value
2022-10-17T00:04:24.551Z,3.86
2022-10-17T00:09:27.274Z,3.61
2022-10-17T00:14:29.986Z,3.29
2022-10-17T00:19:32.749Z,3.11
2022-10-17T00:24:35.484Z,2.92
2022-10-17T00:29:38.187Z,2.92
2022-10-17T00:34:41.144Z,3.01
2022-10-17T00:39:43.826Z,3.01
2022-10-17T00:44:47.951Z,3.12
2022-10-17T00:49:50.842Z,3.18
2022-10-17T00:55:03.190Z,3.26
2022-10-17T01:00:09.150Z,3.25
2022-10-17T01:05:12.279Z,3.22
2022-10-17T01:10:15.614Z,3.17
2022-10-17T01:15:24.358Z,3.23
2022-10-17T01:20:54.403Z,3.33
2022-10-17T01:25:58.115Z,3.47
2022-10-17T01:31:17.196Z,3.52
2022-10-17T01:36:47.109Z,3.63
2022-10-17T01:42:01.762Z,3.80
2022-10-17T01:47:11.758Z,3.69
2022-10-17T01:52:27.513Z,3.64
2022-10-17T01:57:36.514Z,3.70
2022-10-17T02:02:40.028Z,3.59
2022-10-17T02:07:42.836Z,3.91
2022-10-17T02:12:55.698Z,4.29
2022-10-17T02:18:08.889Z,4.49
2022-10-17T02:28:29.020Z,4.69
2022-10-17T02:33:54.756Z,4.70
2022-10-17T02:38:58.473Z,4.85
2022-10-17T02:44:03.028Z,5.23
2022-10-17T02:49:25.034Z,5.53
2022-10-17T02:54:38.178Z,5.72
2022-10-17T02:59:42.269Z,5.86
2022-10-17T03:04:46.808Z,5.92
2022-10-17T03:09:49.496Z,5.92
2022-10-17T03:14:52.172Z,6.06
2022-10-17T03:19:55.451Z,6.28
2022-10-17T03:24:58.212Z,6.44
2022-10-17T03:30:01.174Z,6.61
2022-10-17T03:35:05.964Z,6.82
2022-10-17T03:40:09.129Z,6.95
2022-10-17T03:45:11.888Z,7.09
2022-10-17T03:50:15.415Z,7.23
2022-10-17T03:55:19.344Z,7.49
2022-10-17T04:00:22.101Z,7.74
2022-10-17T04:05:31.039Z,7.68
2022-10-17T04:10:33.765Z,7.87
2022-10-17T04:15:36.501Z,8.02
2022-10-17T04:20:40.510Z,8.06
2022-10-17T04:25:43.355Z,8.13
2022-10-17T04:30:46.456Z,8.40
2022-10-17T04:36:06.878Z,8.79
2022-10-17T04:41:14.466Z,9.12
2022-10-17T04:46:17.294Z,9.58
2022-10-17T04:51:23.273Z,9.76
2022-10-17T04:56:47.631Z,10.04
2022-10-17T05:01:50.849Z,10.30
2022-10-17T05:06:54.417Z,10.42
2022-10-17T05:12:08.102Z,10.59
2022-10-17T05:17:15.632Z,10.60
2022-10-17T05:22:18.334Z,10.59
2022-10-17T05:27:21.097Z,10.74
2022-10-17T05:32:24.023Z,10.80
2022-10-17T05:37:26.768Z,10.65
2022-10-17T05:42:32.451Z,10.54
2022-10-17T05:47:35.671Z,10.46
2022-10-17T05:52:39.375Z,10.61
2022-10-17T05:57:46.945Z,10.78
2022-10-17T06:02:53.457Z,10.84
2022-10-17T06:07:59.615Z,10.77
2022-10-17T06:13:06.630Z,11.14
2022-10-17T06:18:11.028Z,11.14
2022-10-17T06:23:13.906Z,11.19
2022-10-17T06:28:29.012Z,11.23
2022-10-17T06:33:33.335Z,11.23
2022-10-17T06:38:36.568Z,11.16
2022-10-17T06:43:47.538Z,10.88
2022-10-17T06:49:02.066Z,10.54
2022-10-17T06:54:18.508Z,10.80
2022-10-17T06:59:38.101Z,10.69
2022-10-17T07:04:48.118Z,10.57
2022-10-17T07:09:52.001Z,10.55
2022-10-17T07:14:56.054Z,10.50
2022-10-17T07:19:59.237Z,10.51
2022-10-17T07:25:02.282Z,10.62
2022-10-17T07:30:10.786Z,10.59
2022-10-17T07:35:27.381Z,10.45
2022-10-17T07:40:30.786Z,10.31
2022-10-17T07:45:33.500Z,10.07
2022-10-17T07:50:36.372Z,10.04
2022-10-17T07:55:39.862Z,9.93
2022-10-17T08:00:42.823Z,9.89
2022-10-17T08:05:45.697Z,9.92
2022-10-17T08:10:48.364Z,10.01
2022-10-17T08:15:51.362Z,10.13
2022-10-17T08:20:59.395Z,10.10
2022-10-17T08:26:04.290Z,10.18
2022-10-17T08:31:11.799Z,10.12
2022-10-17T08:36:16.431Z,10.18
2022-10-17T08:41:48.845Z,10.13
2022-10-17T08:46:53.147Z,10.01
2022-10-17T08:52:03.990Z,9.98
2022-10-17T08:57:12.865Z,9.81
2022-10-17T09:02:15.471Z,9.71
2022-10-17T09:07:27.694Z,9.55
2022-10-17T09:12:36.630Z,9.39
2022-10-17T09:18:05.494Z,9.11
2022-10-17T09:23:16.919Z,8.88
2022-10-17T09:28:38.305Z,8.81
2022-10-17T09:33:54.683Z,8.66
2022-10-17T09:38:59.696Z,8.53
2022-10-17T09:44:19.525Z,8.26
2022-10-17T09:49:29.474Z,7.95
2022-10-17T09:54:53.339Z,7.77
2022-10-17T10:00:00.791Z,7.65
2022-10-17T10:05:06.393Z,7.53
2022-10-17T10:10:26.253Z,7.49
2022-10-17T10:15:33.025Z,7.37
2022-10-17T10:20:37.809Z,7.23
2022-10-17T10:25:53.499Z,7.23
2022-10-17T10:30:57.325Z,7.13
2022-10-17T10:36:03.813Z,7.08
2022-10-17T10:41:08.561Z,7.10
2022-10-17T10:46:22.901Z,6.90
2022-10-17T10:51:44.959Z,6.83
2022-10-17T10:56:53.308Z,6.74
2022-10-17T11:02:28.324Z,6.79
2022-10-17T11:07:35.861Z,6.35
2022-10-17T11:12:45.963Z,6.61
2022-10-17T11:17:59.201Z,6.58
2022-10-17T11:23:26.596Z,6.53
2022-10-17T11:28:30.506Z,6.55
2022-10-17T11:33:55.135Z,6.52
2022-10-17T11:39:07.165Z,6.51
2022-10-17T11:44:23.721Z,6.03
2022-10-17T11:49:40.631Z,6.50
2022-10-17T11:55:00.109Z,6.69
2022-10-17T12:00:41.669Z,6.69
2022-10-17T12:05:55.251Z,6.65
2022-10-17T12:11:03.951Z,6.49
2022-10-17T12:16:22.134Z,6.62
2022-10-17T12:21:28.420Z,6.66
2022-10-17T12:26:34.452Z,6.62
2022-10-17T12:31:37.342Z,6.51
2022-10-17T12:36:40.362Z,6.56
2022-10-17T12:41:44.794Z,6.57
2022-10-17T12:47:29.368Z,6.52
2022-10-17T12:52:33.383Z,6.44
2022-10-17T12:57:51.259Z,6.45
2022-10-17T13:02:55.697Z,6.46
2022-10-17T13:08:07.507Z,6.30
2022-10-17T13:13:38.005Z,6.26
2022-10-17T13:18:41.268Z,6.11
2022-10-17T13:23:43.961Z,5.96
2022-10-17T13:29:01.050Z,5.88
2022-10-17T13:34:06.507Z,5.78
2022-10-17T13:39:13.044Z,5.72
2022-10-17T13:44:21.227Z,5.61
2022-10-17T13:49:34.303Z,5.53
2022-10-17T13:54:41.896Z,5.48
2022-10-17T13:59:48.019Z,5.45
2022-10-17T14:05:16.780Z,5.43
2022-10-17T14:10:24.705Z,5.31
2022-10-17T14:15:30.160Z,5.22
2022-10-17T14:26:10.804Z,5.08
2022-10-17T14:31:16.257Z,4.98
2022-10-17T14:36:19.139Z,4.88
2022-10-17T14:46:53.166Z,4.87
2022-10-17T14:52:17.729Z,4.83
2022-10-17T14:57:41.780Z,4.80
2022-10-17T15:02:45.601Z,4.80
2022-10-17T15:07:48.260Z,4.61
2022-10-17T15:12:57.558Z,4.40
2022-10-17T15:18:02.678Z,4.32
2022-10-17T15:23:05.527Z,4.23
2022-10-17T15:28:09.348Z,4.28
2022-10-17T15:33:11.982Z,4.19
2022-10-17T15:38:18.290Z,4.02
2022-10-17T15:43:20.950Z,3.99
2022-10-17T15:48:29.716Z,3.92
2022-10-17T15:53:32.329Z,3.87
2022-10-17T15:58:37.913Z,3.59
2022-10-17T16:03:40.677Z,3.35
2022-10-17T16:08:43.676Z,3.28
2022-10-17T16:13:51.637Z,3.20
2022-10-17T16:18:54.651Z,3.18
2022-10-17T16:23:58.176Z,3.14
2022-10-17T16:29:03.272Z,3.03
2022-10-17T16:34:07.180Z,3.08
2022-10-17T16:39:10.046Z,3.09
2022-10-17T16:44:14.950Z,3.06
2022-10-17T16:49:18.660Z,2.96
2022-10-17T16:54:21.549Z,2.84
2022-10-17T16:59:24.852Z,2.78
2022-10-17T17:04:27.625Z,2.75
2022-10-17T17:09:30.223Z,2.81
2022-10-17T17:14:32.917Z,2.83
2022-10-17T17:19:35.537Z,2.68
2022-10-17T17:24:38.216Z,2.68
2022-10-17T17:29:41.076Z,2.68
2022-10-17T17:34:43.747Z,2.61
2022-10-17T17:39:46.387Z,2.62
2022-10-17T17:44:50.088Z,2.70
2022-10-17T17:49:52.724Z,2.72
2022-10-17T17:54:55.796Z,2.80
2022-10-17T17:59:58.544Z,2.78
2022-10-17T18:05:01.166Z,2.86
2022-10-17T18:10:06.350Z,2.94
2022-10-17T18:15:09.471Z,2.98
2022-10-17T18:20:12.598Z,3.04
2022-10-17T18:25:15.351Z,3.00
2022-10-17T18:30:21.156Z,3.02
2022-10-17T18:35:26.486Z,3.02
2022-10-17T18:40:29.278Z,2.99
2022-10-17T18:45:31.948Z,2.99
2022-10-17T18:50:34.671Z,3.07
2022-10-17T18:55:39.985Z,3.18
2022-10-17T19:00:42.841Z,3.21
2022-10-17T19:05:46.620Z,3.18
2022-10-17T19:10:49.311Z,3.22
2022-10-17T19:15:52.052Z,3.16
2022-10-17T19:20:54.844Z,3.20
2022-10-17T19:26:11.597Z,3.27
2022-10-17T19:31:17.008Z,3.24
2022-10-17T19:36:22.150Z,3.27
2022-10-17T19:41:24.878Z,3.34
2022-10-17T19:46:28.929Z,3.31
2022-10-17T19:51:32.071Z,3.25
2022-10-17T19:56:38.595Z,3.32
2022-10-17T20:01:41.450Z,3.32
2022-10-17T20:06:44.228Z,3.35
2022-10-17T20:11:47.044Z,3.34
2022-10-17T20:16:52.631Z,3.31
2022-10-17T20:21:55.343Z,3.31
2022-10-17T20:26:58.083Z,3.42
2022-10-17T20:32:01.313Z,3.25
2022-10-17T20:37:04.316Z,3.51
2022-10-17T20:42:07.112Z,3.39
2022-10-17T20:47:21.068Z,3.33
2022-10-17T20:52:32.517Z,3.52
2022-10-17T20:57:35.082Z,3.31
2022-10-17T21:02:37.760Z,3.45
2022-10-17T21:07:40.418Z,3.44
2022-10-17T21:12:53.817Z,3.58
2022-10-17T21:17:57.192Z,3.61
2022-10-17T21:23:00.913Z,3.67
2022-10-17T21:28:03.700Z,3.73
2022-10-17T21:33:06.372Z,3.69
2022-10-17T21:38:09.052Z,3.67
2022-10-17T21:43:11.628Z,3.66
2022-10-17T21:48:14.253Z,3.74
2022-10-17T21:53:16.883Z,3.63
2022-10-17T21:58:20.839Z,3.74
2022-10-17T22:03:23.492Z,3.78
2022-10-17T22:08:26.412Z,3.78
2022-10-17T22:13:29.386Z,3.72
2022-10-17T22:18:32.204Z,3.74
2022-10-17T22:23:36.343Z,3.65
2022-10-17T22:28:39.695Z,3.66
2022-10-17T22:33:42.382Z,3.69
2022-10-17T22:38:45.286Z,3.66
2022-10-17T22:43:47.825Z,3.73
2022-10-17T22:48:50.642Z,3.81
2022-10-17T22:53:53.407Z,3.76
2022-10-17T22:58:56.109Z,3.76
2022-10-17T23:03:58.819Z,3.78
2022-10-17T23:09:01.561Z,3.79
2022-10-17T23:14:04.196Z,3.83
2022-10-17T23:19:06.907Z,3.79
2022-10-17T23:24:09.803Z,3.94
2022-10-17T23:29:12.418Z,3.97
2022-10-17T23:34:15.086Z,4.00
2022-10-17T23:39:17.730Z,4.02
2022-10-17T23:44:20.396Z,4.01
2022-10-17T23:49:23.071Z,4.03
2022-10-17T23:54:25.777Z,4.06
2022-10-17T23:59:28.468Z,4.13
